Time;durP1;ratioP1;P1;durP2;ratioP2;P2;SDS_P1;SDS_P2;PMS_P1;PMS_P2;Temp;Humidity;BMP_temperature;BMP_pressure;BME280_temperature;BME280_humidity;BME280_pressure;Samples;Min_cycle;Max_cycle;Signal;HPM_P1;HPM_P2
2021/01/09 00:00:09;;;;;;;25.30;17.77;;;;;;;4.12;69.51;100642.16;5092992;28;20464;-68
2021/01/09 00:02:38;;;;;;;26.37;17.43;;;;;;;4.18;69.37;100639.16;5092221;28;20050;-68
2021/01/09 00:05:07;;;;;;;28.67;19.03;;;;;;;4.23;68.91;100644.69;5092418;28;20481;-68
2021/01/09 00:07:35;;;;;;;24.67;16.80;;;;;;;4.31;68.48;100646.13;5091401;28;20477;-68
2021/01/09 00:10:04;;;;;;;24.35;16.15;;;;;;;4.34;68.08;100639.22;5092177;28;20059;-67
2021/01/09 00:12:31;;;;;;;23.35;17.02;;;;;;;4.37;68.04;100638.72;5092648;28;20048;-68
2021/01/09 00:14:58;;;;;;;22.88;17.10;;;;;;;4.40;67.97;100643.69;5092080;28;20052;-68
2021/01/09 00:17:25;;;;;;;25.83;16.75;;;;;;;4.41;68.10;100646.19;5091424;28;20416;-68
2021/01/09 00:19:52;;;;;;;21.52;15.18;;;;;;;4.43;67.93;100657.78;5092705;28;20044;-68
2021/01/09 00:22:19;;;;;;;23.42;15.52;;;;;;;4.42;67.92;100645.06;5093111;28;20155;-68
2021/01/09 00:24:46;;;;;;;23.52;16.70;;;;;;;4.42;68.08;100658.84;5092979;28;20048;-68
2021/01/09 00:27:13;;;;;;;23.50;15.50;;;;;;;4.46;67.70;100654.47;5092549;28;20056;-68
2021/01/09 00:29:41;;;;;;;23.35;16.38;;;;;;;4.50;67.80;100651.19;5092716;28;20048;-68
2021/01/09 00:32:08;;;;;;;21.55;15.50;;;;;;;4.49;67.54;100655.84;5092683;28;20044;-68
2021/01/09 00:34:35;;;;;;;21.77;15.23;;;;;;;4.52;67.72;100660.00;5096373;28;20056;-68
2021/01/09 00:37:02;;;;;;;22.73;15.07;;;;;;;4.51;67.38;100655.59;5095906;28;20059;-68
2021/01/09 00:39:30;;;;;;;23.08;15.27;;;;;;;4.53;67.02;100662.47;5096534;28;20059;-68
2021/01/09 00:41:59;;;;;;;22.00;14.85;;;;;;;4.55;67.15;100659.47;5096724;28;20407;-68
2021/01/09 00:44:28;;;;;;;21.02;14.93;;;;;;;4.54;67.27;100671.59;5096048;28;20051;-68
2021/01/09 00:46:55;;;;;;;20.63;14.70;;;;;;;4.54;66.91;100669.66;5096379;28;20472;-68
2021/01/09 00:49:22;;;;;;;21.70;14.50;;;;;;;4.56;66.87;100658.38;5096441;28;20488;-68
2021/01/09 00:51:49;;;;;;;20.70;15.18;;;;;;;4.56;67.13;100666.66;5085434;28;20052;-68
2021/01/09 00:54:16;;;;;;;22.48;15.55;;;;;;;4.51;67.32;100667.44;5075692;28;20404;-68
2021/01/09 00:56:44;;;;;;;21.67;15.43;;;;;;;4.52;66.72;100673.81;5076020;28;20053;-68
2021/01/09 00:59:10;;;;;;;21.95;14.88;;;;;;;4.51;67.29;100670.19;5096447;28;20052;-68
2021/01/09 01:01:37;;;;;;;21.65;14.93;;;;;;;4.51;67.23;100680.41;5096248;28;20052;-68
2021/01/09 01:04:04;;;;;;;25.42;15.90;;;;;;;4.50;66.86;100676.00;5095989;28;20503;-68
2021/01/09 01:06:31;;;;;;;21.63;14.55;;;;;;;4.50;67.05;100678.75;5096430;28;20047;-68
2021/01/09 01:08:58;;;;;;;18.90;14.52;;;;;;;4.48;67.09;100679.84;5095588;28;20055;-68
2021/01/09 01:11:26;;;;;;;20.83;14.13;;;;;;;4.42;67.29;100680.91;5096505;28;20063;-68
2021/01/09 01:13:55;;;;;;;19.83;14.00;;;;;;;4.37;67.21;100672.63;5096380;28;20048;-68
2021/01/09 01:16:23;;;;;;;21.05;14.55;;;;;;;4.37;67.20;100674.56;5095549;28;20052;-68
2021/01/09 01:18:50;;;;;;;20.70;14.73;;;;;;;4.36;67.43;100681.16;5096156;28;20047;-68
2021/01/09 01:21:17;;;;;;;19.17;14.00;;;;;;;4.36;67.28;100689.44;5095432;28;20048;-68
2021/01/09 01:23:44;;;;;;;18.83;13.15;;;;;;;4.34;67.48;100689.69;5095191;28;20051;-67
2021/01/09 01:26:13;;;;;;;18.80;13.25;;;;;;;4.32;67.17;100683.63;5095698;28;20055;-68
2021/01/09 01:28:41;;;;;;;19.00;13.25;;;;;;;4.32;67.43;100693.81;5095662;28;20048;-68
2021/01/09 01:31:09;;;;;;;18.30;12.82;;;;;;;4.30;67.89;100694.09;5095546;28;20055;-68
2021/01/09 01:33:37;;;;;;;19.48;14.13;;;;;;;4.24;67.51;100706.19;5095301;28;20429;-68
2021/01/09 01:36:05;;;;;;;19.15;13.82;;;;;;;4.13;68.25;100702.53;5095946;28;20052;-68
2021/01/09 01:38:33;;;;;;;20.73;14.02;;;;;;;4.18;67.83;100713.59;5095194;28;20059;-67
2021/01/09 01:41:03;;;;;;;19.27;13.85;;;;;;;4.22;67.90;100716.63;5094574;28;20059;-68
2021/01/09 01:43:31;;;;;;;20.23;13.18;;;;;;;4.22;67.64;100713.88;5095427;28;20396;-67
2021/01/09 01:45:59;;;;;;;21.60;13.57;;;;;;;4.25;67.30;100716.13;5095396;28;20075;-68
2021/01/09 01:48:27;;;;;;;20.00;13.20;;;;;;;4.19;67.58;100714.44;5095577;28;20059;-67
2021/01/09 01:50:54;;;;;;;17.27;12.77;;;;;;;4.21;67.66;100717.75;5095129;28;20068;-67
2021/01/09 01:53:21;;;;;;;20.38;13.57;;;;;;;4.20;67.45;100718.84;5095013;28;20071;-67
2021/01/09 01:55:50;;;;;;;18.98;13.38;;;;;;;4.27;67.15;100719.44;5094979;28;20425;-67
2021/01/09 01:58:17;;;;;;;17.63;12.35;;;;;;;4.24;67.08;100717.19;5095413;28;20059;-68
2021/01/09 02:00:46;;;;;;;19.27;13.05;;;;;;;4.19;67.16;100719.94;5095396;28;20055;-67
2021/01/09 02:03:16;;;;;;;17.92;13.13;;;;;;;4.17;67.82;100730.41;5094791;28;20052;-67
2021/01/09 02:05:54;;;;;;;17.83;12.20;;;;;;;4.20;67.59;100727.09;5095190;28;20061;-68
2021/01/09 02:08:23;;;;;;;17.33;11.88;;;;;;;4.22;68.18;100731.28;5095159;28;20048;-68
2021/01/09 02:10:50;;;;;;;19.45;12.50;;;;;;;4.24;68.06;100728.22;5095129;28;20052;-67
2021/01/09 02:13:22;;;;;;;18.20;12.27;;;;;;;4.24;67.42;100726.31;5095140;28;20373;-68
2021/01/09 02:15:50;;;;;;;18.42;12.43;;;;;;;4.26;67.19;100720.53;5094791;28;20048;-67
2021/01/09 02:18:18;;;;;;;19.38;12.25;;;;;;;4.22;67.61;100724.91;5094192;28;20146;-67
2021/01/09 02:20:49;;;;;;;21.20;13.68;;;;;;;4.23;67.61;100721.06;5094759;28;20059;-67
2021/01/09 02:23:17;;;;;;;18.83;12.68;;;;;;;4.18;67.89;100730.16;5094372;28;20059;-68
2021/01/09 02:25:44;;;;;;;20.02;13.80;;;;;;;4.11;67.81;100718.50;5093829;28;20048;-68
2021/01/09 02:28:11;;;;;;;20.30;13.63;;;;;;;4.10;67.66;100727.88;5094141;28;20055;-68
2021/01/09 02:30:40;;;;;;;19.45;13.27;;;;;;;4.06;67.94;100733.09;5094238;28;20055;-67
2021/01/09 02:33:09;;;;;;;20.45;13.13;;;;;;;4.03;67.88;100730.03;5094441;28;20047;-68
2021/01/09 02:35:41;;;;;;;20.90;13.35;;;;;;;4.03;68.04;100730.03;5094712;28;20060;-67
2021/01/09 02:38:08;;;;;;;20.20;13.52;;;;;;;4.04;68.15;100738.03;5094232;28;20075;-67
2021/01/09 02:40:40;;;;;;;20.77;13.48;;;;;;;4.07;68.52;100736.66;5094337;28;20079;-68
2021/01/09 02:43:10;;;;;;;20.98;12.65;;;;;;;4.12;68.33;100733.13;5094138;28;20067;-66
2021/01/09 02:45:38;;;;;;;18.05;11.57;;;;;;;4.15;68.38;100727.91;5093979;28;20052;-66
2021/01/09 02:48:06;;;;;;;16.90;12.73;;;;;;;4.17;68.70;100733.16;5093437;28;20052;-67
2021/01/09 02:50:33;;;;;;;20.25;13.18;;;;;;;4.19;68.50;100730.97;5093818;28;20071;-67
2021/01/09 02:53:03;;;;;;;18.05;12.60;;;;;;;4.18;68.41;100735.66;5094402;28;20052;-68
2021/01/09 02:55:32;;;;;;;19.08;12.90;;;;;;;4.18;69.18;100743.06;5093160;28;20385;-66
2021/01/09 02:58:00;;;;;;;20.90;14.03;;;;;;;4.20;69.59;100747.25;5094030;28;20059;-66
2021/01/09 03:00:26;;;;;;;20.48;13.02;;;;;;;4.25;69.05;100749.22;5094045;28;20052;-66
2021/01/09 03:02:53;;;;;;;22.50;13.82;;;;;;;4.27;68.85;100750.59;5094078;28;20052;-66
2021/01/09 03:05:20;;;;;;;19.98;12.57;;;;;;;4.32;69.17;100754.47;5093449;28;20059;-66
2021/01/09 03:07:47;;;;;;;19.23;12.15;;;;;;;4.36;69.14;100761.97;5093592;28;20488;-66
2021/01/09 03:10:14;;;;;;;19.60;12.18;;;;;;;4.40;68.92;100765.03;5093293;28;20063;-66
2021/01/09 03:12:41;;;;;;;19.90;12.23;;;;;;;4.45;68.63;100757.63;5093455;28;20060;-66
2021/01/09 03:15:10;;;;;;;17.85;12.70;;;;;;;4.47;69.26;100758.19;5093613;28;20049;-66
2021/01/09 03:17:37;;;;;;;19.13;12.07;;;;;;;4.50;68.02;100759.56;5093149;28;20498;-66
2021/01/09 03:20:05;;;;;;;19.30;12.35;;;;;;;4.51;67.98;100754.88;5093749;28;20499;-66
2021/01/09 03:22:32;;;;;;;21.25;13.07;;;;;;;4.44;68.83;100755.94;5093434;28;20499;-66
2021/01/09 03:24:59;;;;;;;18.23;12.82;;;;;;;4.50;68.41;100751.28;5092746;28;20424;-66
2021/01/09 03:27:25;;;;;;;17.58;11.75;;;;;;;4.56;68.42;100749.41;5093458;28;20052;-66
2021/01/09 03:29:55;;;;;;;18.13;13.18;;;;;;;4.55;68.46;100753.25;5093557;28;20052;-66
2021/01/09 03:32:25;;;;;;;16.30;11.80;;;;;;;4.57;68.66;100751.88;5093354;28;20055;-66
2021/01/09 03:34:52;;;;;;;18.45;13.00;;;;;;;4.60;67.89;100758.78;5093207;28;20059;-66
2021/01/09 03:37:18;;;;;;;18.05;12.35;;;;;;;4.61;68.50;100760.47;5093223;28;20052;-66
2021/01/09 03:39:45;;;;;;;18.58;12.13;;;;;;;4.62;67.72;100756.59;5092530;28;20063;-66
2021/01/09 03:42:15;;;;;;;23.13;13.60;;;;;;;4.66;67.75;100760.47;5092718;28;20126;-66
2021/01/09 03:44:42;;;;;;;21.80;12.93;;;;;;;4.70;67.93;100763.53;5093239;28;20043;-66
2021/01/09 03:47:08;;;;;;;18.73;12.70;;;;;;;4.70;67.19;100761.59;5093165;28;20384;-66
2021/01/09 03:49:36;;;;;;;21.08;13.48;;;;;;;4.70;67.58;100758.84;5092802;28;20052;-66
2021/01/09 03:52:06;;;;;;;20.30;11.93;;;;;;;4.71;67.40;100759.69;5093029;28;20484;-66
2021/01/09 03:54:33;;;;;;;19.45;13.20;;;;;;;4.72;67.62;100758.56;5091846;28;20057;-67
2021/01/09 03:57:00;;;;;;;18.20;12.27;;;;;;;4.74;67.23;100765.47;5093393;28;20047;-66
2021/01/09 03:59:27;;;;;;;21.02;12.98;;;;;;;4.75;67.29;100761.63;5093010;28;20059;-67
2021/01/09 04:01:53;;;;;;;21.15;14.07;;;;;;;4.78;67.51;100761.09;5092541;28;20058;-66
2021/01/09 04:04:20;;;;;;;19.15;13.02;;;;;;;4.80;67.27;100758.91;5093029;28;20048;-66
2021/01/09 04:06:48;;;;;;;20.10;12.98;;;;;;;4.79;66.77;100764.69;5091779;28;20055;-66
2021/01/09 04:09:15;;;;;;;21.27;13.65;;;;;;;4.80;66.93;100756.13;5093106;28;20052;-66
2021/01/09 04:11:42;;;;;;;23.60;14.05;;;;;;;4.76;67.13;100763.28;5092792;28;20048;-67
2021/01/09 04:14:08;;;;;;;22.08;14.05;;;;;;;4.79;67.32;100761.94;5093598;28;20051;-67
2021/01/09 04:16:37;;;;;;;20.23;13.32;;;;;;;4.81;67.65;100763.31;5093087;28;20052;-67
2021/01/09 04:19:04;;;;;;;21.58;13.50;;;;;;;4.85;67.00;100767.22;5093118;28;20054;-67
2021/01/09 04:21:31;;;;;;;22.95;14.60;;;;;;;4.85;66.78;100772.72;5092170;28;20473;-67
2021/01/09 04:23:58;;;;;;;28.25;15.73;;;;;;;4.86;67.38;100770.78;5092341;28;20063;-67
2021/01/09 04:26:25;;;;;;;26.85;15.93;;;;;;;4.88;67.32;100768.59;5093138;28;20064;-67
2021/01/09 04:28:52;;;;;;;27.27;15.82;;;;;;;4.90;67.74;100768.34;5093392;28;20480;-67
2021/01/09 04:31:19;;;;;;;29.85;17.48;;;;;;;4.86;67.71;100768.03;5092860;28;20067;-67
2021/01/09 04:33:46;;;;;;;29.27;17.30;;;;;;;4.89;67.59;100773.00;5092419;28;20079;-67
2021/01/09 04:36:13;;;;;;;30.52;16.30;;;;;;;4.91;67.77;100772.75;5092662;28;20052;-67
2021/01/09 04:38:42;;;;;;;29.55;17.38;;;;;;;4.94;67.53;100789.59;5091144;28;20048;-67
2021/01/09 04:41:13;;;;;;;30.70;17.73;;;;;;;4.92;67.45;100788.22;5092170;28;20063;-67
2021/01/09 04:43:40;;;;;;;30.48;17.75;;;;;;;4.93;67.42;100789.88;5092489;28;20063;-67
2021/01/09 04:46:07;;;;;;;31.45;18.35;;;;;;;4.91;67.72;100790.13;5091708;28;20052;-67
2021/01/09 04:48:34;;;;;;;33.15;18.80;;;;;;;4.87;67.69;100784.34;5092244;28;20056;-67
2021/01/09 04:51:01;;;;;;;32.47;17.95;;;;;;;4.93;67.51;100787.94;5092606;28;20055;-67
2021/01/09 04:53:30;;;;;;;32.35;19.05;;;;;;;4.95;67.17;100782.16;5092175;28;20067;-67
2021/01/09 04:55:57;;;;;;;33.65;19.65;;;;;;;4.97;67.31;100785.47;5092192;28;20472;-67
2021/01/09 04:58:25;;;;;;;34.67;19.48;;;;;;;4.97;67.40;100791.81;5092619;28;20059;-67
2021/01/09 05:00:55;;;;;;;37.17;20.17;;;;;;;4.82;66.70;100791.75;5091683;28;20059;-67
2021/01/09 05:03:21;;;;;;;;;;;;;;;4.76;67.13;100795.56;5092744;28;20075;-67
2021/01/09 05:05:51;;;;;;;31.80;18.67;;;;;;;4.75;67.52;100800.28;5092192;28;19927;-67
2021/01/09 05:08:18;;;;;;;40.00;19.55;;;;;;;4.74;67.85;100801.34;5091558;28;20059;-67
2021/01/09 05:10:45;;;;;;;34.97;20.48;;;;;;;4.71;67.90;100799.16;5091548;28;20059;-67
2021/01/09 05:13:12;;;;;;;35.13;19.40;;;;;;;4.65;68.00;100794.69;5092160;28;20060;-67
2021/01/09 05:15:41;;;;;;;39.47;20.65;;;;;;;4.59;68.03;100801.28;5091477;28;20052;-67
2021/01/09 05:18:08;;;;;;;36.10;20.27;;;;;;;4.60;68.32;100800.16;5092106;28;20062;-67
2021/01/09 05:20:35;;;;;;;40.03;22.25;;;;;;;4.56;67.89;100793.53;5095771;28;20155;-67
2021/01/09 05:23:05;;;;;;;39.70;20.67;;;;;;;4.57;67.71;100806.22;5095744;28;20059;-67
2021/01/09 05:25:32;;;;;;;37.88;19.55;;;;;;;4.53;67.74;100797.66;5095239;28;20487;-67
2021/01/09 05:27:59;;;;;;;36.10;20.83;;;;;;;4.47;68.33;100804.22;5095327;28;20048;-67
2021/01/09 05:30:26;;;;;;;40.45;20.55;;;;;;;4.46;68.62;100814.44;5095501;28;20052;-67
2021/01/09 05:32:57;;;;;;;37.67;19.83;;;;;;;4.41;68.92;100808.88;5095866;28;20056;-67
2021/01/09 05:35:24;;;;;;;40.67;20.75;;;;;;;4.39;68.06;100822.13;5098881;28;20047;-67
2021/01/09 05:37:53;;;;;;;33.78;18.23;;;;;;;4.37;67.88;100821.53;5095247;28;20044;-67
2021/01/09 05:40:20;;;;;;;30.33;17.85;;;;;;;4.29;68.37;100830.31;5094478;28;20063;-67
2021/01/09 05:42:49;;;;;;;30.23;17.60;;;;;;;4.22;67.99;100836.03;5095843;28;20060;-67
2021/01/09 05:45:15;;;;;;;34.03;17.27;;;;;;;4.20;68.08;100829.09;5095195;28;20480;-67
2021/01/09 05:47:42;;;;;;;32.55;17.25;;;;;;;4.18;67.97;100829.41;5095534;28;20052;-67
2021/01/09 05:50:12;;;;;;;33.97;17.60;;;;;;;4.17;68.37;100837.91;5095198;28;20059;-67
2021/01/09 05:52:40;;;;;;;35.40;16.73;;;;;;;4.16;68.39;100831.59;5095738;28;20048;-67
2021/01/09 05:55:08;;;;;;;31.30;16.60;;;;;;;4.15;68.30;100829.91;5094680;28;20052;-67
2021/01/09 05:57:36;;;;;;;30.45;16.48;;;;;;;4.18;67.71;100834.06;5095072;28;20055;-67
2021/01/09 06:00:06;;;;;;;28.90;16.73;;;;;;;4.21;68.19;100841.81;5095163;28;20067;-67
2021/01/09 06:02:47;;;;;;;26.70;15.20;;;;;;;4.22;68.11;100838.81;5094825;28;20391;-67
2021/01/09 06:05:16;;;;;;;29.83;15.25;;;;;;;4.21;67.93;100836.31;5095009;28;20480;-67
2021/01/09 06:07:47;;;;;;;28.35;16.17;;;;;;;4.20;67.67;100842.91;5095122;28;20476;-67
2021/01/09 06:10:16;;;;;;;27.42;15.00;;;;;;;4.22;67.78;100840.72;5094900;28;20048;-67
2021/01/09 06:12:58;;;;;;;31.08;17.33;;;;;;;4.20;68.22;100843.75;5094741;28;20055;-67
2021/01/09 06:15:26;;;;;;;29.08;15.80;;;;;;;4.21;68.37;100839.06;5094488;28;20056;-67
2021/01/09 06:17:53;;;;;;;31.70;16.13;;;;;;;4.23;67.83;100845.16;5094182;28;20467;-67
2021/01/09 06:20:25;;;;;;;32.42;16.80;;;;;;;4.19;67.54;100850.34;5094000;28;20063;-67
2021/01/09 06:22:53;;;;;;;31.55;16.33;;;;;;;4.20;67.99;100851.16;5093567;28;20048;-67
2021/01/09 06:25:20;;;;;;;33.67;16.27;;;;;;;4.21;68.40;100855.59;5093652;28;20416;-67
2021/01/09 06:27:50;;;;;;;29.17;16.33;;;;;;;4.22;67.94;100852.59;5094282;28;20052;-67
2021/01/09 06:30:20;;;;;;;28.90;15.20;;;;;;;4.24;68.07;100858.69;5093296;28;20052;-67
2021/01/09 06:32:50;;;;;;;;;;;;;;;4.26;68.26;100856.50;5094714;28;20056;-67
2021/01/09 06:35:17;;;;;;;29.58;15.00;;;;;;;4.22;68.71;100855.34;5094022;28;19920;-67
2021/01/09 06:37:45;;;;;;;33.20;17.77;;;;;;;4.27;68.02;100855.38;5093996;28;20052;-67
2021/01/09 06:40:15;;;;;;;31.75;17.10;;;;;;;4.24;68.03;100849.56;5092840;28;20044;-67
2021/01/09 06:42:45;;;;;;;29.52;17.00;;;;;;;4.23;67.83;100850.66;5093690;28;20048;-67
2021/01/09 06:45:12;;;;;;;28.95;16.00;;;;;;;4.24;68.83;100858.69;5094178;28;20058;-67
2021/01/09 06:47:39;;;;;;;34.00;17.45;;;;;;;4.23;68.50;100864.44;5093951;28;20047;-67
2021/01/09 06:50:30;;;;;;;35.47;17.73;;;;;;;4.28;67.91;100861.72;5094001;28;20059;-67
2021/01/09 06:52:58;;;;;;;36.05;19.08;;;;;;;4.23;67.71;100864.44;5094364;28;20052;-67
2021/01/09 06:55:58;;;;;;;35.40;16.15;;;;;;;4.25;67.35;100867.78;5093680;28;20056;-67
2021/01/09 06:58:27;;;;;;;32.00;17.67;;;;;;;4.25;67.72;100873.28;5051987;28;20053;-67
2021/01/09 07:01:21;;;;;;;32.22;16.60;;;;;;;4.19;68.07;100868.81;5051253;28;20052;-67
2021/01/09 07:03:48;;;;;;;30.90;16.70;;;;;;;4.18;67.90;100868.00;5077953;28;20056;-67
2021/01/09 07:06:15;;;;;;;35.33;18.13;;;;;;;4.16;67.57;100870.19;5093404;28;20400;-67
2021/01/09 07:08:44;;;;;;;35.22;18.27;;;;;;;4.12;67.55;100873.72;5093238;28;20067;-67
2021/01/09 07:11:12;;;;;;;36.00;17.20;;;;;;;4.03;68.08;100868.69;5093679;28;20056;-67
2021/01/09 07:13:39;;;;;;;33.72;17.90;;;;;;;4.09;68.20;100874.22;5093730;28;20063;-67
2021/01/09 07:16:07;;;;;;;37.55;18.02;;;;;;;4.04;67.82;100872.25;5093610;28;20044;-67
2021/01/09 07:18:38;;;;;;;36.55;17.45;;;;;;;3.99;68.45;100875.81;5092543;28;20051;-66
2021/01/09 07:21:06;;;;;;;41.80;18.15;;;;;;;3.94;67.89;100885.94;5092898;28;20048;-66
2021/01/09 07:23:34;;;;;;;37.03;17.08;;;;;;;3.95;68.69;100882.94;5093450;28;20048;-66
2021/01/09 07:26:03;;;;;;;31.30;17.42;;;;;;;3.96;68.07;100887.34;5092685;28;20048;-66
2021/01/09 07:28:34;;;;;;;33.75;17.63;;;;;;;3.92;68.65;100897.22;5093433;28;20059;-66
2021/01/09 07:31:03;;;;;;;35.47;17.65;;;;;;;3.86;68.72;100888.09;5091732;28;20055;-66
2021/01/09 07:33:31;;;;;;;30.30;16.40;;;;;;;3.88;69.13;100889.72;5104640;28;20059;-66
2021/01/09 07:35:58;;;;;;;30.08;15.88;;;;;;;3.95;69.01;100891.19;5092600;28;20052;-66
2021/01/09 07:38:26;;;;;;;35.47;17.38;;;;;;;3.86;68.32;100876.22;5092085;28;20057;-66
2021/01/09 07:40:55;;;;;;;34.15;17.55;;;;;;;3.83;68.88;100880.31;5092758;28;20052;-66
2021/01/09 07:43:36;;;;;;;32.53;17.10;;;;;;;3.88;69.06;100890.56;5092444;28;20048;-66
2021/01/09 07:46:24;;;;;;;32.83;17.88;;;;;;;3.97;69.13;100899.19;5092587;28;20055;-66
2021/01/09 07:48:52;;;;;;;37.92;20.15;;;;;;;4.04;68.46;100900.66;5091344;28;20056;-66
2021/01/09 07:51:20;;;;;;;36.72;18.92;;;;;;;4.15;68.22;100895.25;5093212;28;20052;-66
2021/01/09 07:53:49;;;;;;;31.02;17.95;;;;;;;4.22;68.11;100899.47;5089566;28;20400;-66
2021/01/09 07:56:35;;;;;;;34.90;18.20;;;;;;;4.36;67.94;100901.78;5095433;28;20047;-66
2021/01/09 07:59:03;;;;;;;36.80;21.02;;;;;;;4.39;67.92;100899.34;5090418;28;20048;-66
2021/01/09 08:01:30;;;;;;;32.47;19.30;;;;;;;4.50;67.37;100907.69;5097468;28;20126;-67
2021/01/09 08:03:57;;;;;;;38.72;19.17;;;;;;;4.60;68.70;100910.50;5092678;28;20067;-66
2021/01/09 08:06:24;;;;;;;30.25;17.80;;;;;;;4.71;67.18;100915.03;5107110;28;20044;-66
2021/01/09 08:08:51;;;;;;;29.02;16.13;;;;;;;4.91;66.33;100919.84;5092721;28;20515;-66
2021/01/09 08:11:18;;;;;;;25.45;15.27;;;;;;;5.08;65.42;100917.78;5094963;28;20051;-66
2021/01/09 08:13:45;;;;;;;29.85;17.55;;;;;;;5.15;63.96;100914.78;5096504;28;20044;-66
2021/01/09 08:16:13;;;;;;;30.67;16.38;;;;;;;5.13;64.13;100905.09;5096147;28;20044;-66
2021/01/09 08:18:40;;;;;;;28.67;16.10;;;;;;;5.03;64.27;100914.16;5093795;28;21408;-66
2021/01/09 08:21:07;;;;;;;34.53;17.50;;;;;;;4.99;64.17;100915.78;5111192;28;20048;-66
2021/01/09 08:23:33;;;;;;;30.35;17.90;;;;;;;4.96;64.14;100927.38;5083804;28;20067;-66
2021/01/09 08:26:10;;;;;;;32.58;16.45;;;;;;;4.93;64.56;100920.44;5094097;28;20066;-66
2021/01/09 08:28:38;;;;;;;34.25;17.40;;;;;;;4.94;64.89;100918.50;5091650;28;20051;-66
2021/01/09 08:31:10;;;;;;;28.40;15.45;;;;;;;5.01;65.03;100924.63;5095216;28;20159;-66
2021/01/09 08:33:38;;;;;;;31.85;17.70;;;;;;;4.98;64.20;100930.69;5090484;28;20164;-66
2021/01/09 08:36:05;;;;;;;31.85;16.80;;;;;;;4.92;64.54;100937.28;5092657;28;20047;-66
2021/01/09 08:38:32;;;;;;;32.47;17.80;;;;;;;4.95;64.18;100933.97;5107991;28;20039;-66
2021/01/09 08:40:59;;;;;;;34.63;16.88;;;;;;;5.01;64.42;100935.66;5106637;28;20047;-67
2021/01/09 08:43:27;;;;;;;33.88;18.73;;;;;;;4.98;64.18;100931.53;5092204;28;20055;-66
2021/01/09 08:45:54;;;;;;;30.95;17.45;;;;;;;5.03;64.01;100934.28;5093395;28;20412;-66
2021/01/09 08:48:23;;;;;;;35.47;17.88;;;;;;;5.05;63.97;100937.63;5097389;28;20457;-66
2021/01/09 08:50:57;;;;;;;30.23;17.52;;;;;;;5.09;63.50;100940.69;5091861;28;20082;-66
2021/01/09 08:53:25;;;;;;;31.45;18.10;;;;;;;5.20;63.21;100949.88;5094596;28;20401;-66
2021/01/09 08:56:00;;;;;;;34.50;17.92;;;;;;;5.27;63.38;100945.78;5096487;28;20056;-66
2021/01/09 08:58:31;;;;;;;30.33;16.88;;;;;;;5.41;63.46;100945.28;5095224;28;20051;-66
2021/01/09 09:01:00;;;;;;;33.38;17.02;;;;;;;5.62;62.89;100951.75;5105937;28;20070;-66
2021/01/09 09:03:28;;;;;;;29.55;17.05;;;;;;;5.92;61.92;100948.25;5107697;28;20047;-67
2021/01/09 09:05:58;;;;;;;28.30;16.50;;;;;;;6.26;61.04;100942.31;5111771;28;20051;-67
2021/01/09 09:08:28;;;;;;;29.67;16.92;;;;;;;6.77;59.46;100944.28;5111098;28;20054;-67
2021/01/09 09:10:55;;;;;;;;;;;;;;;7.37;56.82;100952.78;5098348;28;20052;-67
2021/01/09 09:13:23;;;;;;;28.13;15.68;;;;;;;7.66;57.33;100956.56;5112393;28;19920;-67
2021/01/09 09:15:52;;;;;;;26.25;16.63;;;;;;;8.07;55.79;100947.25;5109927;28;20063;-67
2021/01/09 09:18:19;;;;;;;27.10;16.20;;;;;;;8.04;55.63;100951.41;5100541;28;20075;-67
2021/01/09 09:20:48;;;;;;;26.67;16.30;;;;;;;8.58;53.93;100955.25;5109820;28;20048;-67
2021/01/09 09:23:18;;;;;;;26.03;16.30;;;;;;;8.61;53.76;100959.38;5096367;28;20411;-68
2021/01/09 09:25:45;;;;;;;27.40;17.23;;;;;;;8.77;54.12;100952.59;5092757;28;20052;-67
2021/01/09 09:28:12;;;;;;;27.73;18.27;;;;;;;8.81;53.39;100959.22;5112858;28;20483;-68
2021/01/09 09:30:39;;;;;;;26.63;17.70;;;;;;;8.79;53.28;100960.66;5103805;28;20047;-68
2021/01/09 09:33:13;;;;;;;27.15;17.45;;;;;;;8.60;53.47;100974.41;5102011;28;20070;-68
2021/01/09 09:35:41;;;;;;;30.13;18.05;;;;;;;8.32;54.64;100974.81;5094138;28;20047;-68
2021/01/09 09:38:10;;;;;;;29.40;17.52;;;;;;;7.97;55.07;100980.56;5095438;28;20051;-68
2021/01/09 09:40:40;;;;;;;28.13;18.02;;;;;;;7.80;55.84;100973.44;5093960;28;20054;-68
2021/01/09 09:43:14;;;;;;;32.47;18.90;;;;;;;7.68;55.91;100982.06;5095026;28;20059;-68
2021/01/09 09:45:54;;;;;;;31.35;19.00;;;;;;;7.43;57.03;100984.91;5105408;28;20484;-67
2021/01/09 09:48:28;;;;;;;27.70;17.58;;;;;;;7.20;57.74;100987.19;5112632;28;20047;-68
2021/01/09 09:51:06;;;;;;;28.70;16.88;;;;;;;6.99;58.00;100991.06;5106577;28;20059;-68
2021/01/09 09:53:35;;;;;;;26.73;16.17;;;;;;;6.84;58.95;100989.13;5091119;28;20464;-68
2021/01/09 09:56:13;;;;;;;24.48;16.08;;;;;;;6.75;58.75;100991.63;5094594;28;20496;-67
2021/01/09 09:58:42;;;;;;;27.60;17.30;;;;;;;6.55;60.23;100997.13;5094885;28;20495;-67
2021/01/09 10:01:19;;;;;;;27.55;17.65;;;;;;;6.49;60.18;100993.53;5094515;28;20063;-67
2021/01/09 10:03:47;;;;;;;30.33;17.98;;;;;;;6.37;60.29;100985.50;5075206;28;20063;-67
2021/01/09 10:06:14;;;;;;;29.17;17.55;;;;;;;6.30;60.81;100990.47;5074537;28;20394;-68
2021/01/09 10:08:42;;;;;;;28.10;16.70;;;;;;;6.26;60.68;100994.88;5075353;28;20055;-68
2021/01/09 10:11:09;;;;;;;30.33;17.70;;;;;;;6.20;60.91;100994.03;5094971;28;20048;-68
2021/01/09 10:13:38;;;;;;;36.45;18.40;;;;;;;6.13;61.63;100990.66;5093961;28;20051;-67
2021/01/09 10:16:05;;;;;;;28.60;17.48;;;;;;;6.14;60.99;100991.53;5094045;28;20420;-68
2021/01/09 10:18:33;;;;;;;25.23;16.33;;;;;;;6.08;61.48;100997.03;5104475;28;20151;-68
2021/01/09 10:21:00;;;;;;;27.70;16.88;;;;;;;6.04;61.43;101006.13;5113955;28;20056;-68
2021/01/09 10:23:28;;;;;;;27.33;15.85;;;;;;;6.02;62.18;101003.63;5105587;28;20416;-68
2021/01/09 10:25:56;;;;;;;25.83;16.15;;;;;;;6.04;61.75;101001.44;5110881;28;20061;-68
2021/01/09 10:28:23;;;;;;;23.90;15.18;;;;;;;6.17;61.08;100996.50;5095200;28;20079;-68
2021/01/09 10:30:51;;;;;;;23.40;14.05;;;;;;;6.18;60.52;101004.53;5103813;28;20062;-68
2021/01/09 10:33:17;;;;;;;26.50;14.93;;;;;;;6.16;60.22;100994.84;5111118;28;20193;-68
2021/01/09 10:35:48;;;;;;;25.27;14.30;;;;;;;6.15;60.95;101005.06;5095765;28;20048;-68
2021/01/09 10:38:16;;;;;;;28.05;14.98;;;;;;;6.15;61.26;100991.22;5107855;28;20058;-67
2021/01/09 10:40:44;;;;;;;25.00;14.77;;;;;;;6.21;60.61;100983.78;5073911;28;20381;-68
2021/01/09 10:43:11;;;;;;;23.17;13.90;;;;;;;6.33;60.22;100992.66;5100032;28;20499;-68
2021/01/09 10:45:38;;;;;;;22.95;14.25;;;;;;;6.38;59.87;100986.31;5102579;28;20461;-68
2021/01/09 10:48:06;;;;;;;23.85;14.70;;;;;;;6.36;58.77;100992.09;5098274;28;20050;-68
2021/01/09 10:50:33;;;;;;;25.33;15.57;;;;;;;6.34;59.62;100991.59;5110426;28;20047;-68
2021/01/09 10:53:00;;;;;;;24.33;14.43;;;;;;;6.26;60.04;100990.16;5094979;28;20066;-68
2021/01/09 10:55:27;;;;;;;23.25;14.40;;;;;;;6.26;60.45;100986.59;5092592;28;20110;-68
2021/01/09 10:57:54;;;;;;;26.17;15.30;;;;;;;6.27;61.14;100985.47;5093324;28;20044;-68
2021/01/09 11:00:22;;;;;;;24.42;15.25;;;;;;;6.37;61.41;100998.50;5098332;28;20435;-68
2021/01/09 11:02:49;;;;;;;26.55;14.68;;;;;;;6.42;59.78;100988.25;5088290;28;20081;-68
2021/01/09 11:05:20;;;;;;;26.60;15.50;;;;;;;6.38;60.14;100980.78;5101110;28;20488;-68
2021/01/09 11:07:49;;;;;;;25.67;16.02;;;;;;;6.33;60.86;100984.38;5107214;28;20396;-68
2021/01/09 11:10:16;;;;;;;29.50;16.35;;;;;;;6.29;60.64;100984.06;5092649;28;20059;-68
2021/01/09 11:12:43;;;;;;;24.75;14.95;;;;;;;6.34;61.05;100980.50;5087698;28;20052;-68
2021/01/09 11:15:11;;;;;;;23.73;14.93;;;;;;;6.44;60.64;100982.44;5113955;28;20052;-68
2021/01/09 11:17:38;;;;;;;26.75;15.65;;;;;;;6.49;60.90;100982.47;5102641;28;20052;-69
2021/01/09 11:20:06;;;;;;;26.83;15.88;;;;;;;6.48;60.37;100983.56;5102701;28;20389;-68
2021/01/09 11:22:34;;;;;;;22.55;14.13;;;;;;;6.50;59.99;100982.19;5095132;28;20047;-62